Time;durP1;ratioP1;P1;durP2;ratioP2;P2;SDS_P1;SDS_P2;PMS_P1;PMS_P2;Temp;Humidity;BMP_temperature;BMP_pressure;BME280_temperature;BME280_humidity;BME280_pressure;Samples;Min_cycle;Max_cycle;Signal;HPM_P1;HPM_P2
2022/06/27 00:02:07;;;;;;;12.43;3.65;;;;;;;;;;4919272;28;20038;-78
2022/06/27 00:04:35;;;;;;;11.20;3.60;;;;;;;;;;4917924;28;20043;-75
2022/06/27 00:07:02;;;;;;;11.45;3.30;;;;;;;;;;4917452;28;20035;-78
2022/06/27 00:09:30;;;;;;;11.05;2.97;;;;;;;;;;4919526;28;20027;-77
2022/06/27 00:11:59;;;;;;;11.25;2.95;;;;;;;;;;4917703;28;20035;-78
2022/06/27 00:14:27;;;;;;;9.23;3.03;;;;;;;;;;4918116;28;20042;-78
2022/06/27 00:16:56;;;;;;;13.07;2.88;;;;;;;;;;4919360;28;20405;-76
2022/06/27 00:19:23;;;;;;;12.68;2.78;;;;;;;;;;4920472;28;20039;-76
2022/06/27 00:21:51;;;;;;;11.40;2.75;;;;;;;;;;4921591;28;20058;-76
2022/06/27 00:24:18;;;;;;;11.25;2.85;;;;;;;;;;4917175;28;20150;-76
2022/06/27 00:26:44;;;;;;;11.13;2.70;;;;;;;;;;4919565;28;20354;-76
2022/06/27 00:29:12;;;;;;;9.48;2.33;;;;;;;;;;4915667;28;20287;-76
2022/06/27 00:31:39;;;;;;;13.73;2.30;;;;;;;;;;4920366;28;20339;-76
2022/06/27 00:34:06;;;;;;;9.40;2.35;;;;;;;;;;4914690;28;20491;-75
2022/06/27 00:36:33;;;;;;;11.52;2.42;;;;;;;;;;4918921;28;20027;-74
2022/06/27 00:39:00;;;;;;;7.00;2.03;;;;;;;;;;4915394;28;20560;-77
2022/06/27 00:41:28;;;;;;;9.30;2.17;;;;;;;;;;4919100;28;20466;-76
2022/06/27 00:43:55;;;;;;;9.25;2.20;;;;;;;;;;4917210;28;20031;-76
2022/06/27 00:46:23;;;;;;;13.23;2.45;;;;;;;;;;4919207;28;20600;-75
2022/06/27 00:48:52;;;;;;;11.68;2.33;;;;;;;;;;4919223;28;20031;-77
2022/06/27 00:51:19;;;;;;;8.05;2.20;;;;;;;;;;4911555;28;20034;-75
2022/06/27 00:53:47;;;;;;;10.98;2.55;;;;;;;;;;4918668;28;20035;-74
2022/06/27 00:56:14;;;;;;;9.32;2.25;;;;;;;;;;4915789;28;20027;-76
2022/06/27 00:58:41;;;;;;;8.68;2.28;;;;;;;;;;4921275;28;20042;-75
2022/06/27 01:01:08;;;;;;;14.77;2.53;;;;;;;;;;4913100;28;20042;-76
2022/06/27 01:03:36;;;;;;;10.60;2.47;;;;;;;;;;4917751;28;20049;-75
2022/06/27 01:06:06;;;;;;;11.15;2.65;;;;;;;;;;4917638;28;20350;-75
2022/06/27 01:08:35;;;;;;;10.70;2.55;;;;;;;;;;4918352;28;20113;-75
2022/06/27 01:11:03;;;;;;;10.32;2.28;;;;;;;;;;4913701;28;20034;-75
2022/06/27 01:13:31;;;;;;;9.98;2.55;;;;;;;;;;4919476;28;20110;-75
2022/06/27 01:15:59;;;;;;;8.93;2.30;;;;;;;;;;4916065;28;20031;-76
2022/06/27 01:18:26;;;;;;;9.90;2.78;;;;;;;;;;4915877;28;20046;-76
2022/06/27 01:20:55;;;;;;;12.57;2.90;;;;;;;;;;4916460;28;20024;-76
2022/06/27 01:23:22;;;;;;;12.15;3.15;;;;;;;;;;4919413;28;20032;-75
2022/06/27 01:25:48;;;;;;;11.65;3.42;;;;;;;;;;4926837;28;20023;-76
2022/06/27 01:28:17;;;;;;;13.32;3.25;;;;;;;;;;4916935;28;20616;-75
2022/06/27 01:30:43;;;;;;;14.40;3.75;;;;;;;;;;4922504;28;20089;-75
2022/06/27 01:33:10;;;;;;;14.45;3.30;;;;;;;;;;4919597;28;20031;-76
2022/06/27 01:35:38;;;;;;;16.00;3.95;;;;;;;;;;4919961;28;20098;-76
2022/06/27 01:38:05;;;;;;;16.05;3.50;;;;;;;;;;4915621;28;20747;-76
2022/06/27 01:40:33;;;;;;;15.50;3.80;;;;;;;;;;4921380;28;20098;-76
2022/06/27 01:43:00;;;;;;;13.50;4.03;;;;;;;;;;4920876;28;20036;-76
2022/06/27 01:45:30;;;;;;;20.05;4.40;;;;;;;;;;4925887;28;20394;-76
2022/06/27 01:47:59;;;;;;;15.35;3.67;;;;;;;;;;4912732;28;20482;-76
2022/06/27 01:50:29;;;;;;;16.05;4.38;;;;;;;;;;4920569;28;20062;-76
2022/06/27 01:52:57;;;;;;;17.58;4.05;;;;;;;;;;4914652;28;20034;-76
2022/06/27 01:55:24;;;;;;;15.20;4.20;;;;;;;;;;4922756;28;20047;-76
2022/06/27 01:57:52;;;;;;;17.08;4.22;;;;;;;;;;4921275;28;20263;-76
2022/06/27 02:00:21;;;;;;;17.13;4.30;;;;;;;;;;4919657;28;20492;-76
2022/06/27 02:02:49;;;;;;;15.38;3.78;;;;;;;;;;4919523;28;20126;-77
2022/06/27 02:05:17;;;;;;;15.05;3.75;;;;;;;;;;4918653;28;20039;-76
2022/06/27 02:07:44;;;;;;;18.23;3.80;;;;;;;;;;4924480;28;20442;-75
2022/06/27 02:10:12;;;;;;;15.48;3.80;;;;;;;;;;4914138;28;20468;-77
2022/06/27 02:12:40;;;;;;;13.65;3.22;;;;;;;;;;4923379;28;20375;-77
2022/06/27 02:15:09;;;;;;;13.40;3.60;;;;;;;;;;4919321;28;20482;-75
2022/06/27 02:17:37;;;;;;;12.07;3.33;;;;;;;;;;4924716;28;20035;-75
2022/06/27 02:20:06;;;;;;;16.15;3.92;;;;;;;;;;4921347;28;20568;-75
2022/06/27 02:22:33;;;;;;;14.07;3.28;;;;;;;;;;4902895;28;20062;-75
2022/06/27 02:25:01;;;;;;;13.20;3.75;;;;;;;;;;4923628;28;20438;-75
2022/06/27 02:27:30;;;;;;;16.48;3.72;;;;;;;;;;4925338;28;20039;-75
2022/06/27 02:29:59;;;;;;;13.25;3.78;;;;;;;;;;4902746;28;20479;-74
2022/06/27 02:32:28;;;;;;;14.80;3.90;;;;;;;;;;4921140;28;20245;-75
2022/06/27 02:34:57;;;;;;;13.73;3.95;;;;;;;;;;4919565;28;20183;-75
2022/06/27 02:37:25;;;;;;;17.95;4.13;;;;;;;;;;4921283;28;20043;-76
2022/06/27 02:39:53;;;;;;;17.70;4.18;;;;;;;;;;4919593;28;20062;-76
2022/06/27 02:42:24;;;;;;;14.98;3.92;;;;;;;;;;4925260;28;20039;-75
2022/06/27 02:44:52;;;;;;;19.88;4.00;;;;;;;;;;4920607;28;20585;-76
2022/06/27 02:47:23;;;;;;;13.85;3.78;;;;;;;;;;4917336;28;20038;-75
2022/06/27 02:49:50;;;;;;;18.10;4.35;;;;;;;;;;4918593;28;20055;-75
2022/06/27 02:52:35;;;;;;;18.38;4.28;;;;;;;;;;4917377;28;20036;-75
2022/06/27 02:55:12;;;;;;;16.45;4.18;;;;;;;;;;4917887;28;20138;-75
2022/06/27 02:57:38;;;;;;;14.88;4.13;;;;;;;;;;4921580;28;20074;-76
2022/06/27 03:00:07;;;;;;;15.57;4.00;;;;;;;;;;4916294;28;20493;-76
2022/06/27 03:02:38;;;;;;;19.80;4.38;;;;;;;;;;4925171;28;21348;-75
2022/06/27 03:05:05;;;;;;;19.52;4.60;;;;;;;;;;4919066;28;20046;-75
2022/06/27 03:07:43;;;;;;;19.08;4.43;;;;;;;;;;4921477;28;20064;-75
2022/06/27 03:10:12;;;;;;;17.30;4.43;;;;;;;;;;4919161;28;20031;-75
2022/06/27 03:12:41;;;;;;;16.73;4.40;;;;;;;;;;4927863;28;20023;-75
2022/06/27 03:15:10;;;;;;;15.05;3.75;;;;;;;;;;4916609;28;20039;-75
2022/06/27 03:17:37;;;;;;;16.20;4.43;;;;;;;;;;4922909;28;20035;-75
2022/06/27 03:20:06;;;;;;;16.92;4.70;;;;;;;;;;4920408;28;20043;-75
2022/06/27 03:22:34;;;;;;;15.38;3.95;;;;;;;;;;4926036;28;20112;-77
2022/06/27 03:25:01;;;;;;;14.15;4.38;;;;;;;;;;4919267;28;20940;-77
2022/06/27 03:27:28;;;;;;;19.30;4.57;;;;;;;;;;4919929;28;20389;-74
2022/06/27 03:29:56;;;;;;;17.50;4.13;;;;;;;;;;4925829;28;20118;-74
2022/06/27 03:32:24;;;;;;;18.13;4.78;;;;;;;;;;4924519;28;20038;-77
2022/06/27 03:34:51;;;;;;;15.95;4.57;;;;;;;;;;4918224;28;20494;-75
2022/06/27 03:37:19;;;;;;;14.60;4.18;;;;;;;;;;4915257;28;20470;-77
2022/06/27 03:39:45;;;;;;;18.85;4.55;;;;;;;;;;4923586;28;20077;-75
2022/06/27 03:42:12;;;;;;;14.75;4.53;;;;;;;;;;4921763;28;20069;-75
2022/06/27 03:44:39;;;;;;;17.65;4.97;;;;;;;;;;4922678;28;20035;-75
2022/06/27 03:47:07;;;;;;;17.55;4.35;;;;;;;;;;4922584;28;20027;-74
2022/06/27 03:52:18;;;;;;;17.75;4.72;;;;;;;;;;4921357;28;20137;-77
2022/06/27 03:54:45;;;;;;;20.20;5.18;;;;;;;;;;4918226;28;20124;-76
2022/06/27 03:57:13;;;;;;;20.73;4.70;;;;;;;;;;4920428;28;20039;-76
2022/06/27 03:59:41;;;;;;;17.10;4.72;;;;;;;;;;4917008;28;20501;-76
2022/06/27 04:02:09;;;;;;;18.42;4.88;;;;;;;;;;4920299;28;20032;-75
2022/06/27 04:04:37;;;;;;;18.92;4.55;;;;;;;;;;4920003;28;20999;-75
2022/06/27 04:07:05;;;;;;;16.60;4.75;;;;;;;;;;4920704;28;20046;-74
2022/06/27 04:09:33;;;;;;;18.98;4.53;;;;;;;;;;4923510;28;20063;-74
2022/06/27 04:12:00;;;;;;;14.65;4.32;;;;;;;;;;4919036;28;20042;-74
2022/06/27 04:14:27;;;;;;;19.48;4.30;;;;;;;;;;4922429;28;20039;-74
2022/06/27 04:16:55;;;;;;;17.50;4.55;;;;;;;;;;4919689;28;20031;-77
2022/06/27 04:19:24;;;;;;;17.75;4.60;;;;;;;;;;4919660;28;20035;-74
2022/06/27 04:21:51;;;;;;;17.17;4.32;;;;;;;;;;4920368;28;20027;-74
2022/06/27 04:24:20;;;;;;;18.05;4.47;;;;;;;;;;4922000;28;20161;-74
2022/06/27 04:26:47;;;;;;;17.98;4.63;;;;;;;;;;4917777;28;20043;-74
2022/06/27 04:29:15;;;;;;;13.32;3.97;;;;;;;;;;4919188;28;20304;-74
2022/06/27 04:31:45;;;;;;;15.07;4.40;;;;;;;;;;4923045;28;20085;-75
2022/06/27 04:34:14;;;;;;;15.68;4.53;;;;;;;;;;4921242;28;20102;-74
2022/06/27 04:36:44;;;;;;;15.05;4.25;;;;;;;;;;4920948;28;20453;-77
2022/06/27 04:39:15;;;;;;;15.73;3.88;;;;;;;;;;4922296;28;20130;-75
2022/06/27 04:41:44;;;;;;;17.15;4.35;;;;;;;;;;4921115;28;20400;-75
2022/06/27 04:44:11;;;;;;;14.80;4.07;;;;;;;;;;4918792;28;20035;-75
2022/06/27 04:46:40;;;;;;;15.45;4.47;;;;;;;;;;4923035;28;20047;-75
2022/06/27 04:49:07;;;;;;;18.80;4.55;;;;;;;;;;4921228;28;20379;-75
2022/06/27 04:51:35;;;;;;;14.88;4.38;;;;;;;;;;4919838;28;20126;-75
2022/06/27 04:54:02;;;;;;;16.23;4.78;;;;;;;;;;4918805;28;20035;-75
2022/06/27 04:56:30;;;;;;;19.40;4.88;;;;;;;;;;4914728;28;20038;-75
2022/06/27 04:58:59;;;;;;;18.85;4.88;;;;;;;;;;4915075;28;20449;-75
2022/06/27 05:01:27;;;;;;;15.60;4.43;;;;;;;;;;4915907;28;20236;-74
2022/06/27 05:03:57;;;;;;;20.88;4.53;;;;;;;;;;4917417;28;20027;-75
2022/06/27 05:06:25;;;;;;;15.73;4.60;;;;;;;;;;4919942;28;20146;-75
2022/06/27 05:08:52;;;;;;;15.90;4.95;;;;;;;;;;4920138;28;20118;-75
2022/06/27 05:11:20;;;;;;;19.30;5.43;;;;;;;;;;4918618;28;20410;-75
2022/06/27 05:13:48;;;;;;;19.92;6.20;;;;;;;;;;4917707;28;20314;-75
2022/06/27 05:16:18;;;;;;;23.67;6.45;;;;;;;;;;4921232;28;20562;-75
2022/06/27 05:18:46;;;;;;;22.73;6.93;;;;;;;;;;4922879;28;20065;-75
2022/06/27 05:21:13;;;;;;;22.95;6.30;;;;;;;;;;4917723;28;20042;-76
2022/06/27 05:23:40;;;;;;;18.23;5.55;;;;;;;;;;4924947;28;20882;-75
2022/06/27 05:26:08;;;;;;;19.27;6.82;;;;;;;;;;4922979;28;20103;-75
2022/06/27 05:28:36;;;;;;;21.58;7.20;;;;;;;;;;4918732;28;20033;-75
2022/06/27 05:31:05;;;;;;;32.28;11.85;;;;;;;;;;4917218;28;20488;-75
2022/06/27 05:33:34;;;;;;;22.58;7.80;;;;;;;;;;4914870;28;20103;-75
2022/06/27 05:36:02;;;;;;;20.65;6.32;;;;;;;;;;4911373;28;20093;-75
2022/06/27 05:38:29;;;;;;;21.67;6.63;;;;;;;;;;4915323;28;20365;-76
2022/06/27 05:40:57;;;;;;;19.13;5.60;;;;;;;;;;4913087;28;20300;-75
2022/06/27 05:43:25;;;;;;;21.80;5.72;;;;;;;;;;4917456;28;20032;-74
2022/06/27 05:45:53;;;;;;;18.85;5.43;;;;;;;;;;4913131;28;20533;-75
2022/06/27 05:48:22;;;;;;;21.63;5.18;;;;;;;;;;4918209;28;20040;-75
2022/06/27 05:50:49;;;;;;;21.35;5.50;;;;;;;;;;4920392;28;20454;-75
2022/06/27 05:53:20;;;;;;;22.27;5.28;;;;;;;;;;4913764;28;20048;-74
2022/06/27 05:55:48;;;;;;;19.52;5.30;;;;;;;;;;4914794;28;20675;-76
2022/06/27 05:58:18;;;;;;;15.48;5.15;;;;;;;;;;4915395;28;20892;-76
2022/06/27 06:00:46;;;;;;;21.38;4.65;;;;;;;;;;4914051;28;20115;-76
2022/06/27 06:03:14;;;;;;;17.75;4.53;;;;;;;;;;4913433;28;20086;-76
2022/06/27 06:05:44;;;;;;;18.65;4.40;;;;;;;;;;4919097;28;20426;-75
2022/06/27 06:08:14;;;;;;;23.83;5.32;;;;;;;;;;4916620;28;20171;-74
2022/06/27 06:10:41;;;;;;;16.50;4.68;;;;;;;;;;4914918;28;20028;-76
2022/06/27 06:13:08;;;;;;;21.88;4.72;;;;;;;;;;4915861;28;20477;-75
2022/06/27 06:15:38;;;;;;;19.98;5.43;;;;;;;;;;4921563;28;20035;-75
2022/06/27 06:18:05;;;;;;;17.52;4.82;;;;;;;;;;4919663;28;20053;-75
2022/06/27 06:20:33;;;;;;;21.90;4.93;;;;;;;;;;4919825;28;20059;-75
2022/06/27 06:23:04;;;;;;;19.58;4.07;;;;;;;;;;4881535;28;20042;-75
2022/06/27 06:25:32;;;;;;;18.40;4.32;;;;;;;;;;4920479;28;20070;-76
2022/06/27 06:28:04;;;;;;;21.92;4.65;;;;;;;;;;4925267;28;20047;-76
2022/06/27 06:30:34;;;;;;;24.00;4.88;;;;;;;;;;4929646;28;20057;-76
2022/06/27 06:33:05;;;;;;;22.25;4.70;;;;;;;;;;4932438;28;20422;-76
2022/06/27 06:35:34;;;;;;;23.88;4.63;;;;;;;;;;4929632;28;20497;-76
2022/06/27 06:38:09;;;;;;;19.58;5.00;;;;;;;;;;4925522;28;20035;-76
2022/06/27 06:40:40;;;;;;;20.90;5.05;;;;;;;;;;4932331;28;20102;-75
2022/06/27 06:43:07;;;;;;;18.63;4.40;;;;;;;;;;4929152;28;20046;-76
2022/06/27 06:45:33;;;;;;;20.48;4.40;;;;;;;;;;4927522;28;20551;-76
2022/06/27 06:48:00;;;;;;;17.95;3.97;;;;;;;;;;4923163;28;20039;-76
2022/06/27 06:50:26;;;;;;;16.13;3.95;;;;;;;;;;4928072;28;20458;-76
2022/06/27 06:52:52;;;;;;;16.45;4.15;;;;;;;;;;4928859;28;20488;-75
2022/06/27 06:55:21;;;;;;;19.83;4.70;;;;;;;;;;4923206;28;20504;-76
2022/06/27 06:57:48;;;;;;;19.27;4.72;;;;;;;;;;4912623;28;20753;-74
2022/06/27 07:00:15;;;;;;;21.15;4.80;;;;;;;;;;4869422;28;20016;-75
2022/06/27 07:02:51;;;;;;;;;;;;;;;;;;;;;
2022/06/27 07:05:19;;;;;;;18.08;4.22;;;;;;;;;;4888968;28;20031;-77
2022/06/27 07:07:50;;;;;;;19.13;4.93;;;;;;;;;;4885245;28;20745;-77
2022/06/27 07:10:18;;;;;;;21.23;4.72;;;;;;;;;;4885591;28;20581;-75
2022/06/27 07:12:46;;;;;;;19.13;4.97;;;;;;;;;;4890724;28;20729;-77
2022/06/27 07:15:16;;;;;;;14.75;4.47;;;;;;;;;;4892497;28;20472;-76
2022/06/27 07:17:47;;;;;;;17.55;4.70;;;;;;;;;;4891772;28;21487;-77
2022/06/27 07:20:15;;;;;;;19.50;4.97;;;;;;;;;;4893003;28;20027;-77
2022/06/27 07:22:42;;;;;;;21.42;5.22;;;;;;;;;;4904273;28;20879;-76
2022/06/27 07:25:09;;;;;;;15.18;4.22;;;;;;;;;;4880837;28;20474;-77
2022/06/27 07:27:36;;;;;;;22.67;4.63;;;;;;;;;;4884157;28;20143;-78
2022/06/27 07:30:03;;;;;;;21.38;4.60;;;;;;;;;;4886303;28;20046;-74
2022/06/27 07:32:31;;;;;;;18.90;4.22;;;;;;;;;;4892459;28;20031;-75
2022/06/27 07:34:59;;;;;;;17.13;4.20;;;;;;;;;;4898650;28;20035;-78
2022/06/27 07:37:25;;;;;;;16.30;4.28;;;;;;;;;;4938924;28;20102;-74
2022/06/27 07:39:51;;;;;;;20.00;4.45;;;;;;;;;;4936733;28;20086;-75
2022/06/27 07:42:18;;;;;;;16.33;4.20;;;;;;;;;;4939328;28;20134;-75
2022/06/27 07:44:44;;;;;;;20.33;4.72;;;;;;;;;;4934386;28;20043;-75
2022/06/27 07:47:10;;;;;;;22.05;3.78;;;;;;;;;;4930572;28;20034;-75
2022/06/27 07:49:36;;;;;;;19.52;4.22;;;;;;;;;;4937509;28;20428;-75
2022/06/27 07:52:02;;;;;;;17.20;4.10;;;;;;;;;;4929210;28;20142;-77
2022/06/27 07:54:28;;;;;;;21.00;4.80;;;;;;;;;;4934070;28;20027;-75
2022/06/27 07:56:55;;;;;;;23.23;4.20;;;;;;;;;;4929475;28;20831;-74
2022/06/27 07:59:22;;;;;;;19.00;4.53;;;;;;;;;;4934318;28;20445;-74
2022/06/27 08:01:49;;;;;;;25.38;4.68;;;;;;;;;;4932493;28;20019;-74
2022/06/27 08:04:15;;;;;;;20.52;4.68;;;;;;;;;;4932191;28;20078;-77
2022/06/27 08:06:42;;;;;;;18.63;4.72;;;;;;;;;;4938061;28;20415;-76
2022/06/27 08:09:09;;;;;;;19.10;4.13;;;;;;;;;;4931984;28;20081;-75
2022/06/27 08:11:40;;;;;;;21.35;4.45;;;;;;;;;;4936118;28;20279;-76
2022/06/27 08:14:16;;;;;;;15.80;4.13;;;;;;;;;;4931418;28;20043;-76
2022/06/27 08:16:42;;;;;;;17.23;4.68;;;;;;;;;;4939862;28;20026;-75
2022/06/27 08:19:09;;;;;;;21.10;4.72;;;;;;;;;;4932565;28;20063;-76
2022/06/27 08:21:37;;;;;;;17.27;4.57;;;;;;;;;;4930604;28;20043;-74
2022/06/27 08:24:07;;;;;;;20.75;4.45;;;;;;;;;;4936286;28;20042;-76
2022/06/27 08:26:34;;;;;;;20.88;4.50;;;;;;;;;;4934104;28;20032;-76
2022/06/27 08:29:02;;;;;;;20.92;4.60;;;;;;;;;;4933369;28;20533;-75
2022/06/27 08:31:36;;;;;;;20.50;4.43;;;;;;;;;;4937448;28;20134;-76
2022/06/27 08:34:04;;;;;;;20.75;4.57;;;;;;;;;;4934948;28;20268;-75
2022/06/27 08:36:36;;;;;;;20.35;4.88;;;;;;;;;;4921328;28;20367;-76
2022/06/27 08:39:07;;;;;;;22.30;4.82;;;;;;;;;;4932049;28;20211;-76
2022/06/27 08:41:34;;;;;;;19.75;4.57;;;;;;;;;;4937130;28;20106;-75
2022/06/27 08:44:06;;;;;;;21.58;5.25;;;;;;;;;;4936496;28;20098;-73
2022/06/27 08:46:35;;;;;;;21.73;4.55;;;;;;;;;;4936589;28;20046;-71
2022/06/27 08:49:09;;;;;;;20.08;4.65;;;;;;;;;;4939265;28;20055;-70
2022/06/27 08:51:55;;;;;;;18.55;3.78;;;;;;;;;;4933903;28;20410;-70
2022/06/27 08:54:23;;;;;;;22.15;4.82;;;;;;;;;;4939643;28;20039;-71
2022/06/27 08:56:51;;;;;;;20.58;4.80;;;;;;;;;;4936218;28;20086;-71
2022/06/27 08:59:19;;;;;;;22.48;4.90;;;;;;;;;;4934555;28;20019;-70
2022/06/27 09:01:49;;;;;;;20.33;4.88;;;;;;;;;;4937423;28;20039;-70
2022/06/27 09:04:18;;;;;;;25.02;4.97;;;;;;;;;;4926072;28;24009;-70
2022/06/27 09:06:47;;;;;;;23.02;4.63;;;;;;;;;;4940508;28;20182;-71
2022/06/27 09:09:15;;;;;;;20.70;4.97;;;;;;;;;;4929943;28;20482;-71
2022/06/27 09:11:49;;;;;;;20.27;4.57;;;;;;;;;;4934373;28;20058;-71
2022/06/27 09:14:39;;;;;;;21.73;4.82;;;;;;;;;;4934415;28;20071;-71
2022/06/27 09:17:13;;;;;;;20.80;4.35;;;;;;;;;;4930061;28;20035;-71
2022/06/27 09:19:53;;;;;;;26.02;4.78;;;;;;;;;;4929155;28;20035;-71
2022/06/27 09:22:25;;;;;;;18.25;3.95;;;;;;;;;;4928699;28;20081;-71
2022/06/27 09:25:04;;;;;;;20.23;4.25;;;;;;;;;;4916344;28;20526;-71
2022/06/27 09:27:37;;;;;;;22.23;4.47;;;;;;;;;;4942270;28;20042;-70
2022/06/27 09:30:22;;;;;;;19.05;4.35;;;;;;;;;;4938013;28;20041;-70
2022/06/27 09:32:49;;;;;;;19.20;4.05;;;;;;;;;;4937020;28;20035;-70
2022/06/27 09:35:31;;;;;;;22.35;4.60;;;;;;;;;;4934322;28;21246;-70
2022/06/27 09:37:59;;;;;;;20.65;3.92;;;;;;;;;;4933342;28;20069;-70
2022/06/27 09:40:27;;;;;;;20.80;4.45;;;;;;;;;;4934745;28;20038;-70
2022/06/27 09:42:54;;;;;;;20.20;4.68;;;;;;;;;;4934904;28;20134;-70
2022/06/27 09:45:25;;;;;;;18.50;4.22;;;;;;;;;;4934750;28;20031;-70
2022/06/27 09:48:01;;;;;;;17.08;4.50;;;;;;;;;;4933561;28;20042;-70
2022/06/27 09:50:40;;;;;;;18.92;3.65;;;;;;;;;;4938033;28;20086;-70
2022/06/27 09:53:08;;;;;;;22.10;4.28;;;;;;;;;;4930893;28;20043;-72
2022/06/27 09:55:47;;;;;;;18.38;4.63;;;;;;;;;;4937143;28;20249;-72
2022/06/27 09:58:15;;;;;;;19.65;4.35;;;;;;;;;;4932775;28;20042;-71
2022/06/27 10:00:48;;;;;;;18.10;4.55;;;;;;;;;;4937753;28;20286;-72
2022/06/27 10:03:22;;;;;;;21.35;4.80;;;;;;;;;;4936056;28;22262;-72
2022/06/27 10:05:51;;;;;;;19.75;4.75;;;;;;;;;;4937601;28;20034;-70
2022/06/27 10:08:18;;;;;;;18.55;5.13;;;;;;;;;;4934627;28;20039;-71
2022/06/27 10:11:04;;;;;;;24.08;5.00;;;;;;;;;;4935558;28;20031;-70
2022/06/27 10:13:31;;;;;;;25.65;5.07;;;;;;;;;;4934683;28;20491;-71
2022/06/27 10:15:58;;;;;;;14.82;3.92;;;;;;;;;;4930822;28;20168;-71
2022/06/27 10:18:27;;;;;;;18.65;3.80;;;;;;;;;;4941702;28;20031;-71
2022/06/27 10:20:53;;;;;;;19.70;4.15;;;;;;;;;;4936851;28;20114;-71
2022/06/27 10:23:26;;;;;;;19.67;4.53;;;;;;;;;;4928257;28;20026;-71
2022/06/27 10:25:53;;;;;;;20.80;4.50;;;;;;;;;;4933468;28;20206;-71
2022/06/27 10:28:21;;;;;;;22.80;4.50;;;;;;;;;;4933263;28;20046;-72
2022/06/27 10:30:58;;;;;;;18.60;4.40;;;;;;;;;;4927588;28;20034;-71
2022/06/27 10:33:24;;;;;;;18.15;4.88;;;;;;;;;;4932937;28;20058;-71
2022/06/27 10:36:02;;;;;;;20.98;4.57;;;;;;;;;;4932767;28;20027;-71
2022/06/27 10:38:30;;;;;;;18.63;5.15;;;;;;;;;;4939166;28;20545;-71
2022/06/27 10:40:57;;;;;;;20.70;4.82;;;;;;;;;;4927280;28;20111;-71
2022/06/27 10:43:40;;;;;;;21.10;5.22;;;;;;;;;;4927882;28;20164;-71
2022/06/27 10:46:15;;;;;;;20.20;4.68;;;;;;;;;;4923479;28;20573;-71
2022/06/27 10:48:42;;;;;;;21.08;4.93;;;;;;;;;;4930272;28;20050;-71
2022/06/27 10:51:28;;;;;;;19.08;4.53;;;;;;;;;;4921870;28;20485;-71
2022/06/27 10:54:07;;;;;;;15.18;4.53;;;;;;;;;;4928785;28;20064;-71
2022/06/27 10:56:34;;;;;;;18.52;4.35;;;;;;;;;;4941392;28;20039;-71
2022/06/27 10:59:01;;;;;;;18.45;4.40;;;;;;;;;;4922993;28;20038;-71
2022/06/27 11:01:27;;;;;;;18.58;3.97;;;;;;;;;;4926732;28;20134;-71
2022/06/27 11:03:54;;;;;;;18.55;4.13;;;;;;;;;;4926105;28;20023;-71
2022/06/27 11:06:21;;;;;;;17.80;4.47;;;;;;;;;;4924481;28;20043;-72
2022/06/27 11:08:48;;;;;;;16.13;3.92;;;;;;;;;;4925676;28;20027;-71
2022/06/27 11:11:21;;;;;;;19.92;4.35;;;;;;;;;;4914644;28;20900;-72
2022/06/27 11:13:52;;;;;;;21.40;4.57;;;;;;;;;;4928832;28;20101;-72
2022/06/27 11:16:26;;;;;;;21.42;4.10;;;;;;;;;;4923038;28;20035;-72
2022/06/27 11:18:58;;;;;;;15.98;3.90;;;;;;;;;;4927055;28;20704;-72
2022/06/27 11:21:38;;;;;;;16.55;4.20;;;;;;;;;;4921901;28;20039;-72
2022/06/27 11:24:05;;;;;;;18.27;4.18;;;;;;;;;;4924128;28;20046;-72
2022/06/27 11:26:33;;;;;;;17.65;3.80;;;;;;;;;;4923822;28;20266;-71
2022/06/27 11:32:01;;;;;;;17.08;3.78;;;;;;;;;;4928292;28;20037;-72
2022/06/27 11:34:28;;;;;;;19.35;3.83;;;;;;;;;;4927338;28;20170;-72
2022/06/27 11:36:55;;;;;;;21.02;4.85;;;;;;;;;;4924495;28;20507;-73
2022/06/27 11:39:25;;;;;;;19.25;4.25;;;;;;;;;;4917329;28;20439;-73
2022/06/27 11:41:55;;;;;;;23.30;4.40;;;;;;;;;;4918556;28;20581;-73
2022/06/27 11:44:22;;;;;;;17.23;4.18;;;;;;;;;;4920087;28;20069;-72
2022/06/27 11:46:49;;;;;;;14.07;3.30;;;;;;;;;;4922890;28;20134;-71
2022/06/27 11:49:16;;;;;;;18.58;3.88;;;;;;;;;;4919684;28;20237;-73
2022/06/27 11:51:43;;;;;;;20.35;4.60;;;;;;;;;;4920855;28;20024;-72
2022/06/27 11:54:17;;;;;;;19.98;4.68;;;;;;;;;;4924422;28;20793;-73
2022/06/27 11:56:44;;;;;;;18.08;4.20;;;;;;;;;;4921792;28;20023;-73
2022/06/27 11:59:11;;;;;;;16.88;3.80;;;;;;;;;;4922849;28;20318;-72
2022/06/27 12:01:49;;;;;;;20.38;4.90;;;;;;;;;;4925816;28;20102;-72
2022/06/27 12:04:16;;;;;;;20.23;4.78;;;;;;;;;;4920258;28;21025;-73
2022/06/27 12:06:45;;;;;;;17.67;4.55;;;;;;;;;;4928691;28;20105;-71
2022/06/27 12:09:12;;;;;;;17.38;4.32;;;;;;;;;;4921267;28;20167;-72
2022/06/27 12:11:47;;;;;;;17.48;3.80;;;;;;;;;;4925182;28;20652;-70
2022/06/27 12:14:14;;;;;;;;;;;;;;;;;;4926264;28;20039;-74
2022/06/27 12:16:49;;;;;;;17.63;3.92;;;;;;;;;;4926121;28;20432;-73
2022/06/27 12:19:15;;;;;;;16.70;4.38;;;;;;;;;;4923280;28;20127;-73
2022/06/27 12:21:45;;;;;;;15.43;3.85;;;;;;;;;;4926210;28;20031;-73
2022/06/27 12:24:12;;;;;;;14.80;3.38;;;;;;;;;;4918973;28;20031;-72
2022/06/27 12:26:40;;;;;;;15.40;3.60;;;;;;;;;;4928738;28;20047;-72
2022/06/27 12:29:07;;;;;;;13.75;3.53;;;;;;;;;;4919520;28;20113;-72
2022/06/27 12:31:35;;;;;;;17.60;3.92;;;;;;;;;;4926350;28;20126;-72
2022/06/27 12:34:03;;;;;;;17.58;3.92;;;;;;;;;;4921820;28;20098;-72
2022/06/27 12:36:32;;;;;;;19.25;4.25;;;;;;;;;;4923894;28;20035;-72
2022/06/27 12:39:06;;;;;;;18.25;3.78;;;;;;;;;;4926017;28;20035;-72
2022/06/27 12:41:34;;;;;;;19.15;4.10;;;;;;;;;;4922033;28;20229;-73
2022/06/27 12:44:01;;;;;;;14.77;3.60;;;;;;;;;;4924004;28;20028;-73
2022/06/27 12:46:30;;;;;;;15.70;3.50;;;;;;;;;;4925205;28;20494;-73
2022/06/27 12:48:56;;;;;;;16.15;3.80;;;;;;;;;;4922917;28;20066;-72
2022/06/27 12:51:25;;;;;;;18.00;3.85;;;;;;;;;;4922473;28;20059;-73
2022/06/27 12:53:53;;;;;;;13.18;3.50;;;;;;;;;;4925397;28;20051;-73
2022/06/27 12:56:20;;;;;;;15.25;3.78;;;;;;;;;;4914513;28;20027;-74
2022/06/27 12:58:46;;;;;;;18.58;3.75;;;;;;;;;;4920154;28;20034;-73
2022/06/27 13:01:15;;;;;;;17.95;4.07;;;;;;;;;;4922900;28;20035;-73
2022/06/27 13:03:52;;;;;;;14.63;3.90;;;;;;;;;;4925491;28;20150;-73
2022/06/27 13:06:20;;;;;;;15.60;3.92;;;;;;;;;;4920363;28;20042;-73
2022/06/27 13:08:46;;;;;;;18.08;3.92;;;;;;;;;;4926997;28;20066;-72
2022/06/27 13:11:14;;;;;;;14.50;3.53;;;;;;;;;;4920050;28;20039;-73
2022/06/27 13:13:43;;;;;;;17.88;3.78;;;;;;;;;;4923613;28;20246;-72
2022/06/27 13:16:09;;;;;;;15.02;2.80;;;;;;;;;;4923971;28;20117;-70
2022/06/27 13:18:35;;;;;;;16.10;3.60;;;;;;;;;;4925701;28;20568;-72
2022/06/27 13:21:02;;;;;;;14.93;3.80;;;;;;;;;;4923905;28;20062;-69
2022/06/27 13:23:31;;;;;;;16.95;3.55;;;;;;;;;;4924146;28;20136;-69
2022/06/27 13:25:59;;;;;;;14.18;3.45;;;;;;;;;;4925430;28;20081;-69
2022/06/27 13:28:26;;;;;;;16.98;4.28;;;;;;;;;;4927950;28;20039;-68
2022/06/27 13:30:54;;;;;;;14.60;3.30;;;;;;;;;;4928725;28;20625;-70
2022/06/27 13:33:21;;;;;;;14.35;3.78;;;;;;;;;;4922499;28;20337;-71
2022/06/27 13:35:49;;;;;;;13.77;3.42;;;;;;;;;;4929645;28;20031;-69
2022/06/27 13:38:16;;;;;;;17.33;3.45;;;;;;;;;;4920920;28;21905;-68
2022/06/27 13:40:43;;;;;;;14.43;3.38;;;;;;;;;;4929108;28;20023;-70
2022/06/27 13:43:11;;;;;;;14.60;3.30;;;;;;;;;;4921529;28;20210;-72
2022/06/27 13:45:39;;;;;;;16.40;3.35;;;;;;;;;;4931140;28;20035;-73
2022/06/27 13:48:11;;;;;;;13.82;3.25;;;;;;;;;;4923057;28;20271;-72
2022/06/27 13:50:38;;;;;;;13.95;3.15;;;;;;;;;;4929647;28;20058;-68
2022/06/27 13:53:05;;;;;;;17.05;3.22;;;;;;;;;;4926676;28;20078;-70
2022/06/27 13:55:37;;;;;;;14.93;3.05;;;;;;;;;;4926590;28;20128;-72
2022/06/27 13:58:09;;;;;;;13.20;2.97;;;;;;;;;;4907902;28;20078;-72
2022/06/27 14:00:38;;;;;;;13.68;3.33;;;;;;;;;;4923371;28;20091;-70
2022/06/27 14:03:06;;;;;;;11.32;2.85;;;;;;;;;;4927214;28;20536;-73
2022/06/27 14:05:36;;;;;;;13.05;3.25;;;;;;;;;;4932075;28;20050;-72
2022/06/27 14:08:03;;;;;;;12.77;3.03;;;;;;;;;;4924648;28;20066;-72
2022/06/27 14:10:32;;;;;;;16.48;3.50;;;;;;;;;;4930136;28;20301;-71
2022/06/27 14:12:58;;;;;;;16.83;3.22;;;;;;;;;;4916201;28;20051;-74
2022/06/27 14:15:25;;;;;;;16.52;4.18;;;;;;;;;;4919421;28;20645;-74
2022/06/27 14:17:54;;;;;;;14.85;3.58;;;;;;;;;;4918487;28;20142;-73
2022/06/27 14:20:22;;;;;;;15.57;3.63;;;;;;;;;;4923282;28;20623;-76
2022/06/27 14:22:49;;;;;;;12.48;2.70;;;;;;;;;;4921972;28;20031;-77
2022/06/27 14:25:18;;;;;;;14.63;3.15;;;;;;;;;;4921964;28;20543;-76
2022/06/27 14:27:45;;;;;;;14.95;3.13;;;;;;;;;;4926654;28;20138;-73
2022/06/27 14:30:13;;;;;;;16.90;3.40;;;;;;;;;;4923259;28;20050;-70
2022/06/27 14:32:39;;;;;;;14.50;3.58;;;;;;;;;;4926244;28;20035;-72
2022/06/27 14:35:06;;;;;;;14.30;3.22;;;;;;;;;;4929925;28;20134;-75
2022/06/27 14:37:32;;;;;;;16.50;3.70;;;;;;;;;;4923819;28;20532;-75
2022/06/27 14:39:58;;;;;;;14.85;2.95;;;;;;;;;;4925930;28;20039;-75
2022/06/27 14:42:26;;;;;;;14.32;3.00;;;;;;;;;;4925421;28;20035;-69
2022/06/27 14:44:52;;;;;;;15.27;3.13;;;;;;;;;;4919204;28;20324;-69
2022/06/27 14:47:20;;;;;;;12.82;2.97;;;;;;;;;;4917658;28;20085;-70